METAR Data
IDs: Format: Raw Decoded Include TAF

Data at: 2219 UTC 01 Dec 2021

METAR for:KI69 (Batavia/Clermont Cnt, OH, US)
Text:KI69 012215Z AUTO 19004KT 10SM SCT050 BKN060 OVC070 11/07 A2989 RMK AO2 T01050066
Temperature: 10.5°C ( 51°F)
Dewpoint: 6.6°C ( 44°F) [RH = 77%]
Pressure (altimeter):29.89 inches Hg (1012.3 mb)
Winds:from the S (190 degrees) at 5 MPH (4 knots; 2.1 m/s)
Visibility:10 or more sm (16+ km)
Ceiling:6000 feet AGL
Clouds: scattered clouds at 5000 feet AGL, broken clouds at 6000 feet AGL, overcast cloud deck at 7000 feet AGL
QC Flag:automated observation with no human augmentation